Aeroporto :
LOGIN :

Iscrizione | Disclaimer

   EN    FR    IT 

 










Sommario :    VFR   VFR Marginale   IFR   IFR Intensivo   IFR Molto Intensivo
Visibilità : 
Base nubi : 
>= 8 km
>= 3000ft
5 / 8 km
1000 / 3000 ft
1500m / 5 km
500 / 1000 ft
800 / 1500m
200 / 500 ft
< 800m
< 200 ft
Simboli :   Temporali  Nebbia  Neve Forte  Precipitazioni Forti  Vento > 20 kt
SIGMETs :   Varie  Temporali  Ghiacco  Turbolenza  Onda orograficha  Ceneri Vulcaniche







- Altitudine del aeroporto : -11 ft
- Codice IATA : AMS


EHAM - Amsterdam Schiphol

ULTIMO METAR :
  • 181755Z 06007KT 030V100 CAVOK 18/06 Q1025 NOSIG

METARs OBSOLETI :
  • 181725Z 09009KT 060V140 CAVOK 20/05 Q1024 NOSIG
  • 181655Z 09012KT 060V120 CAVOK 20/05 Q1024 NOSIG
  • 181625Z 08014KT 050V110 CAVOK 21/05 Q1024 NOSIG
  • 181555Z 09010KT 040V130 CAVOK 21/05 Q1024 NOSIG
  • 181525Z 09012KT 050V120 CAVOK 21/05 Q1024 NOSIG

TAF TAF EHAM
Valido dal 18 a 18 ore il 20 a 00 ore UTC


181634Z 1818/1924 08011KT CAVOK
BECMG 1916/1919 05008KT
Nessun NOTAM noto per questo aeroporto.



MetMap, La meteo Aeronautica in un colpo d'occhio ! - Copyright ORBIFLY Dicembre 2007 - Disclaimer

ORBIFLY MET'MAP TEAM :

Programmazione e sviluppo : Alexandra Zaïnal
Concezione e sviluppo : Baudouin d'Aumeries
Co-Programmazione e sviluppo : Marc-Olivier Méhu
Supporto tecnico e logistico : Manuel Goepfert
Aiuto per la traduzione : Arnaldo La Scala

Contatto : metmap@orbifly.com




FONTI E CREDITI :

   NOAA